sensor_id;sensor_type;location;lat;lon;timestamp;P1;P2;P0
60645;PMS5003;46462;32.608;-117.032;2023-03-04T00:01:01;4;3;
60645;PMS5003;46462;32.608;-117.032;2023-03-04T00:03:32;5;4;
60645;PMS5003;46462;32.608;-117.032;2023-03-04T00:06:03;3;3;
60645;PMS5003;46462;32.608;-117.032;2023-03-04T00:08:33;2;2;
60645;PMS5003;46462;32.608;-117.032;2023-03-04T00:11:04;4;4;
60645;PMS5003;46462;32.608;-117.032;2023-03-04T00:13:35;3;3;
60645;PMS5003;46462;32.608;-117.032;2023-03-04T00:16:06;2;2;
60645;PMS5003;46462;32.608;-117.032;2023-03-04T00:18:37;2;2;
60645;PMS5003;46462;32.608;-117.032;2023-03-04T00:21:07;1;1;
60645;PMS5003;46462;32.608;-117.032;2023-03-04T00:23:38;3;3;
60645;PMS5003;46462;32.608;-117.032;2023-03-04T00:26:09;2;2;
60645;PMS5003;46462;32.608;-117.032;2023-03-04T00:28:40;1;1;
60645;PMS5003;46462;32.608;-117.032;2023-03-04T00:31:11;1;1;
60645;PMS5003;46462;32.608;-117.032;2023-03-04T00:33:41;0;0;
60645;PMS5003;46462;32.608;-117.032;2023-03-04T00:36:12;2;2;
60645;PMS5003;46462;32.608;-117.032;2023-03-04T00:38:43;0;0;
60645;PMS5003;46462;32.608;-117.032;2023-03-04T00:41:14;1;1;
60645;PMS5003;46462;32.608;-117.032;2023-03-04T00:43:44;1;1;
60645;PMS5003;46462;32.608;-117.032;2023-03-04T00:46:15;1;1;
60645;PMS5003;46462;32.608;-117.032;2023-03-04T00:48:46;0;0;
60645;PMS5003;46462;32.608;-117.032;2023-03-04T00:51:17;0;0;
60645;PMS5003;46462;32.608;-117.032;2023-03-04T00:53:48;1;1;
60645;PMS5003;46462;32.608;-117.032;2023-03-04T00:56:19;0;0;
60645;PMS5003;46462;32.608;-117.032;2023-03-04T00:58:49;1;1;
60645;PMS5003;46462;32.608;-117.032;2023-03-04T01:01:20;0;0;
60645;PMS5003;46462;32.608;-117.032;2023-03-04T01:03:51;1;1;
60645;PMS5003;46462;32.608;-117.032;2023-03-04T01:06:22;0;0;
60645;PMS5003;46462;32.608;-117.032;2023-03-04T01:08:52;0;0;
60645;PMS5003;46462;32.608;-117.032;2023-03-04T01:11:23;1;1;
60645;PMS5003;46462;32.608;-117.032;2023-03-04T01:13:54;1;1;
60645;PMS5003;46462;32.608;-117.032;2023-03-04T01:16:25;0;0;
60645;PMS5003;46462;32.608;-117.032;2023-03-04T01:18:55;1;1;
60645;PMS5003;46462;32.608;-117.032;2023-03-04T01:21:26;0;0;
60645;PMS5003;46462;32.608;-117.032;2023-03-04T01:23:57;2;2;
60645;PMS5003;46462;32.608;-117.032;2023-03-04T01:26:28;2;2;
60645;PMS5003;46462;32.608;-117.032;2023-03-04T01:28:59;1;1;
60645;PMS5003;46462;32.608;-117.032;2023-03-04T01:31:29;0;0;
60645;PMS5003;46462;32.608;-117.032;2023-03-04T01:34:00;2;2;
60645;PMS5003;46462;32.608;-117.032;2023-03-04T01:36:31;2;2;
60645;PMS5003;46462;32.608;-117.032;2023-03-04T01:39:02;2;2;
60645;PMS5003;46462;32.608;-117.032;2023-03-04T01:41:32;1;1;
60645;PMS5003;46462;32.608;-117.032;2023-03-04T01:44:03;2;1;
60645;PMS5003;46462;32.608;-117.032;2023-03-04T01:46:34;2;2;
60645;PMS5003;46462;32.608;-117.032;2023-03-04T01:49:05;1;1;
60645;PMS5003;46462;32.608;-117.032;2023-03-04T01:51:35;0;0;
60645;PMS5003;46462;32.608;-117.032;2023-03-04T01:54:07;2;2;
60645;PMS5003;46462;32.608;-117.032;2023-03-04T01:56:38;1;1;
60645;PMS5003;46462;32.608;-117.032;2023-03-04T01:59:09;2;2;
60645;PMS5003;46462;32.608;-117.032;2023-03-04T02:01:39;0;0;
60645;PMS5003;46462;32.608;-117.032;2023-03-04T02:04:09;1;1;
60645;PMS5003;46462;32.608;-117.032;2023-03-04T02:06:40;2;1;
60645;PMS5003;46462;32.608;-117.032;2023-03-04T02:09:11;2;1;
60645;PMS5003;46462;32.608;-117.032;2023-03-04T02:11:42;1;1;
60645;PMS5003;46462;32.608;-117.032;2023-03-04T02:14:12;2;2;
60645;PMS5003;46462;32.608;-117.032;2023-03-04T02:16:43;1;1;
60645;PMS5003;46462;32.608;-117.032;2023-03-04T02:19:15;3;1;
60645;PMS5003;46462;32.608;-117.032;2023-03-04T02:21:44;4;3;
60645;PMS5003;46462;32.608;-117.032;2023-03-04T02:24:16;2;2;
60645;PMS5003;46462;32.608;-117.032;2023-03-04T02:26:45;1;1;
60645;PMS5003;46462;32.608;-117.032;2023-03-04T02:29:16;2;2;
60645;PMS5003;46462;32.608;-117.032;2023-03-04T02:31:47;2;2;
60645;PMS5003;46462;32.608;-117.032;2023-03-04T02:34:19;3;1;
60645;PMS5003;46462;32.608;-117.032;2023-03-04T02:36:49;2;2;
60645;PMS5003;46462;32.608;-117.032;2023-03-04T02:39:22;1;1;
60645;PMS5003;46462;32.608;-117.032;2023-03-04T02:41:50;2;1;
60645;PMS5003;46462;32.608;-117.032;2023-03-04T02:44:21;2;2;
60645;PMS5003;46462;32.608;-117.032;2023-03-04T02:46:51;2;2;
60645;PMS5003;46462;32.608;-117.032;2023-03-04T02:49:23;2;2;
60645;PMS5003;46462;32.608;-117.032;2023-03-04T02:51:58;3;2;
60645;PMS5003;46462;32.608;-117.032;2023-03-04T02:54:24;2;2;
60645;PMS5003;46462;32.608;-117.032;2023-03-04T02:56:55;2;2;
60645;PMS5003;46462;32.608;-117.032;2023-03-04T02:59:25;1;1;
60645;PMS5003;46462;32.608;-117.032;2023-03-04T03:01:56;3;2;
60645;PMS5003;46462;32.608;-117.032;2023-03-04T03:04:27;3;3;
60645;PMS5003;46462;32.608;-117.032;2023-03-04T03:06:58;3;3;
60645;PMS5003;46462;32.608;-117.032;2023-03-04T03:09:28;2;2;
60645;PMS5003;46462;32.608;-117.032;2023-03-04T03:11:59;2;2;
60645;PMS5003;46462;32.608;-117.032;2023-03-04T03:14:30;2;0;
60645;PMS5003;46462;32.608;-117.032;2023-03-04T03:17:01;3;3;
60645;PMS5003;46462;32.608;-117.032;2023-03-04T03:19:31;4;3;
60645;PMS5003;46462;32.608;-117.032;2023-03-04T03:22:02;2;1;
60645;PMS5003;46462;32.608;-117.032;2023-03-04T03:24:33;2;2;
60645;PMS5003;46462;32.608;-117.032;2023-03-04T03:27:04;1;1;
60645;PMS5003;46462;32.608;-117.032;2023-03-04T03:29:34;4;3;
60645;PMS5003;46462;32.608;-117.032;2023-03-04T03:32:05;1;1;
60645;PMS5003;46462;32.608;-117.032;2023-03-04T03:34:36;2;2;
60645;PMS5003;46462;32.608;-117.032;2023-03-04T03:37:07;1;1;
60645;PMS5003;46462;32.608;-117.032;2023-03-04T03:39:38;2;2;
60645;PMS5003;46462;32.608;-117.032;2023-03-04T03:42:09;3;3;
60645;PMS5003;46462;32.608;-117.032;2023-03-04T03:44:39;4;3;
60645;PMS5003;46462;32.608;-117.032;2023-03-04T03:47:10;1;1;
60645;PMS5003;46462;32.608;-117.032;2023-03-04T03:49:41;3;2;
60645;PMS5003;46462;32.608;-117.032;2023-03-04T03:52:12;4;4;
60645;PMS5003;46462;32.608;-117.032;2023-03-04T03:54:43;3;2;
60645;PMS5003;46462;32.608;-117.032;2023-03-04T03:57:13;4;4;
60645;PMS5003;46462;32.608;-117.032;2023-03-04T03:59:44;3;2;
60645;PMS5003;46462;32.608;-117.032;2023-03-04T04:02:15;5;3;
60645;PMS5003;46462;32.608;-117.032;2023-03-04T04:04:46;4;4;
60645;PMS5003;46462;32.608;-117.032;2023-03-04T04:07:17;3;3;
60645;PMS5003;46462;32.608;-117.032;2023-03-04T04:09:47;3;3;
60645;PMS5003;46462;32.608;-117.032;2023-03-04T04:12:18;2;2;
60645;PMS5003;46462;32.608;-117.032;2023-03-04T04:14:49;2;2;
60645;PMS5003;46462;32.608;-117.032;2023-03-04T04:17:20;2;2;
60645;PMS5003;46462;32.608;-117.032;2023-03-04T04:19:50;5;3;
60645;PMS5003;46462;32.608;-117.032;2023-03-04T04:22:21;2;2;
60645;PMS5003;46462;32.608;-117.032;2023-03-04T04:24:52;2;2;
60645;PMS5003;46462;32.608;-117.032;2023-03-04T04:27:23;2;2;
60645;PMS5003;46462;32.608;-117.032;2023-03-04T04:29:54;2;2;
60645;PMS5003;46462;32.608;-117.032;2023-03-04T04:32:24;4;4;
60645;PMS5003;46462;32.608;-117.032;2023-03-04T04:34:55;4;4;
60645;PMS5003;46462;32.608;-117.032;2023-03-04T04:37:26;3;3;
60645;PMS5003;46462;32.608;-117.032;2023-03-04T04:39:57;2;2;
60645;PMS5003;46462;32.608;-117.032;2023-03-04T04:42:28;3;3;
60645;PMS5003;46462;32.608;-117.032;2023-03-04T04:44:58;3;3;
60645;PMS5003;46462;32.608;-117.032;2023-03-04T04:47:29;4;4;
60645;PMS5003;46462;32.608;-117.032;2023-03-04T04:50:00;1;1;
60645;PMS5003;46462;32.608;-117.032;2023-03-04T04:52:31;1;1;
60645;PMS5003;46462;32.608;-117.032;2023-03-04T04:55:06;4;4;
60645;PMS5003;46462;32.608;-117.032;2023-03-04T04:57:36;2;2;
60645;PMS5003;46462;32.608;-117.032;2023-03-04T05:00:07;3;3;
60645;PMS5003;46462;32.608;-117.032;2023-03-04T05:02:37;3;2;
60645;PMS5003;46462;32.608;-117.032;2023-03-04T05:05:08;4;3;
60645;PMS5003;46462;32.608;-117.032;2023-03-04T05:07:38;4;4;
60645;PMS5003;46462;32.608;-117.032;2023-03-04T05:10:10;3;3;
60645;PMS5003;46462;32.608;-117.032;2023-03-04T05:12:40;4;3;
60645;PMS5003;46462;32.608;-117.032;2023-03-04T05:15:11;3;3;
60645;PMS5003;46462;32.608;-117.032;2023-03-04T05:17:42;3;3;
60645;PMS5003;46462;32.608;-117.032;2023-03-04T05:20:13;5;4;
60645;PMS5003;46462;32.608;-117.032;2023-03-04T05:22:43;5;5;
60645;PMS5003;46462;32.608;-117.032;2023-03-04T05:25:14;2;2;
60645;PMS5003;46462;32.608;-117.032;2023-03-04T05:27:45;3;3;
60645;PMS5003;46462;32.608;-117.032;2023-03-04T05:30:16;3;2;
60645;PMS5003;46462;32.608;-117.032;2023-03-04T05:32:47;2;2;
60645;PMS5003;46462;32.608;-117.032;2023-03-04T05:35:17;4;4;
60645;PMS5003;46462;32.608;-117.032;2023-03-04T05:37:48;2;2;
60645;PMS5003;46462;32.608;-117.032;2023-03-04T05:40:19;3;3;
60645;PMS5003;46462;32.608;-117.032;2023-03-04T05:42:50;2;2;
60645;PMS5003;46462;32.608;-117.032;2023-03-04T05:45:21;6;4;
60645;PMS5003;46462;32.608;-117.032;2023-03-04T05:47:52;3;2;
60645;PMS5003;46462;32.608;-117.032;2023-03-04T05:50:23;1;1;
60645;PMS5003;46462;32.608;-117.032;2023-03-04T05:52:53;1;1;
60645;PMS5003;46462;32.608;-117.032;2023-03-04T05:55:24;2;2;
60645;PMS5003;46462;32.608;-117.032;2023-03-04T05:57:55;3;2;
60645;PMS5003;46462;32.608;-117.032;2023-03-04T06:00:26;3;2;
60645;PMS5003;46462;32.608;-117.032;2023-03-04T06:02:57;3;3;
60645;PMS5003;46462;32.608;-117.032;2023-03-04T06:05:27;4;3;
60645;PMS5003;46462;32.608;-117.032;2023-03-04T06:07:58;5;4;
60645;PMS5003;46462;32.608;-117.032;2023-03-04T06:10:29;4;4;
60645;PMS5003;46462;32.608;-117.032;2023-03-04T06:13:00;4;4;
60645;PMS5003;46462;32.608;-117.032;2023-03-04T06:15:30;2;2;
60645;PMS5003;46462;32.608;-117.032;2023-03-04T06:18:01;3;3;
60645;PMS5003;46462;32.608;-117.032;2023-03-04T06:20:32;4;4;
60645;PMS5003;46462;32.608;-117.032;2023-03-04T06:23:03;3;3;
60645;PMS5003;46462;32.608;-117.032;2023-03-04T06:25:34;2;2;
60645;PMS5003;46462;32.608;-117.032;2023-03-04T06:28:05;3;2;
60645;PMS5003;46462;32.608;-117.032;2023-03-04T06:30:35;5;4;
60645;PMS5003;46462;32.608;-117.032;2023-03-04T06:33:06;3;3;
60645;PMS5003;46462;32.608;-117.032;2023-03-04T06:35:37;4;4;
60645;PMS5003;46462;32.608;-117.032;2023-03-04T06:38:08;3;3;
60645;PMS5003;46462;32.608;-117.032;2023-03-04T06:40:39;4;3;
60645;PMS5003;46462;32.608;-117.032;2023-03-04T06:43:10;4;3;
60645;PMS5003;46462;32.608;-117.032;2023-03-04T06:45:40;2;2;
60645;PMS5003;46462;32.608;-117.032;2023-03-04T06:48:11;4;3;
60645;PMS5003;46462;32.608;-117.032;2023-03-04T06:50:42;3;3;
60645;PMS5003;46462;32.608;-117.032;2023-03-04T06:53:13;5;3;
60645;PMS5003;46462;32.608;-117.032;2023-03-04T06:55:44;2;2;
60645;PMS5003;46462;32.608;-117.032;2023-03-04T06:58:15;4;3;
60645;PMS5003;46462;32.608;-117.032;2023-03-04T07:00:45;3;3;
60645;PMS5003;46462;32.608;-117.032;2023-03-04T07:03:16;3;2;
60645;PMS5003;46462;32.608;-117.032;2023-03-04T07:05:47;2;2;
60645;PMS5003;46462;32.608;-117.032;2023-03-04T07:08:18;5;5;
60645;PMS5003;46462;32.608;-117.032;2023-03-04T07:10:49;2;2;
60645;PMS5003;46462;32.608;-117.032;2023-03-04T07:13:20;2;2;
60645;PMS5003;46462;32.608;-117.032;2023-03-04T07:15:50;2;1;
60645;PMS5003;46462;32.608;-117.032;2023-03-04T07:18:21;2;2;
60645;PMS5003;46462;32.608;-117.032;2023-03-04T07:20:52;3;3;
60645;PMS5003;46462;32.608;-117.032;2023-03-04T07:23:23;5;4;
60645;PMS5003;46462;32.608;-117.032;2023-03-04T07:25:54;3;3;
60645;PMS5003;46462;32.608;-117.032;2023-03-04T07:28:25;5;4;
60645;PMS5003;46462;32.608;-117.032;2023-03-04T07:30:55;2;2;
60645;PMS5003;46462;32.608;-117.032;2023-03-04T07:33:26;1;1;
60645;PMS5003;46462;32.608;-117.032;2023-03-04T07:35:58;3;2;
60645;PMS5003;46462;32.608;-117.032;2023-03-04T07:38:28;1;1;
60645;PMS5003;46462;32.608;-117.032;2023-03-04T07:40:59;4;2;
60645;PMS5003;46462;32.608;-117.032;2023-03-04T07:43:30;3;3;
60645;PMS5003;46462;32.608;-117.032;2023-03-04T07:46:01;4;3;
60645;PMS5003;46462;32.608;-117.032;2023-03-04T07:48:31;3;3;
60645;PMS5003;46462;32.608;-117.032;2023-03-04T07:51:03;2;2;
60645;PMS5003;46462;32.608;-117.032;2023-03-04T07:53:33;2;2;
60645;PMS5003;46462;32.608;-117.032;2023-03-04T07:56:04;3;3;
60645;PMS5003;46462;32.608;-117.032;2023-03-04T07:58:35;3;3;
60645;PMS5003;46462;32.608;-117.032;2023-03-04T08:01:08;3;3;
60645;PMS5003;46462;32.608;-117.032;2023-03-04T08:03:36;3;3;
60645;PMS5003;46462;32.608;-117.032;2023-03-04T08:06:08;2;2;
60645;PMS5003;46462;32.608;-117.032;2023-03-04T08:08:38;3;3;
60645;PMS5003;46462;32.608;-117.032;2023-03-04T08:11:09;2;2;
60645;PMS5003;46462;32.608;-117.032;2023-03-04T08:13:39;4;3;
60645;PMS5003;46462;32.608;-117.032;2023-03-04T08:16:11;3;3;
60645;PMS5003;46462;32.608;-117.032;2023-03-04T08:18:41;2;2;
60645;PMS5003;46462;32.608;-117.032;2023-03-04T08:21:12;3;3;
60645;PMS5003;46462;32.608;-117.032;2023-03-04T08:23:43;2;2;
60645;PMS5003;46462;32.608;-117.032;2023-03-04T08:26:15;5;5;
60645;PMS5003;46462;32.608;-117.032;2023-03-04T08:28:44;3;3;
60645;PMS5003;46462;32.608;-117.032;2023-03-04T08:31:16;2;2;
60645;PMS5003;46462;32.608;-117.032;2023-03-04T08:33:46;2;1;
60645;PMS5003;46462;32.608;-117.032;2023-03-04T08:36:17;2;2;
60645;PMS5003;46462;32.608;-117.032;2023-03-04T08:38:48;4;3;
60645;PMS5003;46462;32.608;-117.032;2023-03-04T08:41:19;2;2;
60645;PMS5003;46462;32.608;-117.032;2023-03-04T08:43:49;4;2;
60645;PMS5003;46462;32.608;-117.032;2023-03-04T08:46:20;4;4;
60645;PMS5003;46462;32.608;-117.032;2023-03-04T08:48:50;4;4;
60645;PMS5003;46462;32.608;-117.032;2023-03-04T08:51:20;4;3;
60645;PMS5003;46462;32.608;-117.032;2023-03-04T08:53:51;4;4;
60645;PMS5003;46462;32.608;-117.032;2023-03-04T08:56:22;3;3;
60645;PMS5003;46462;32.608;-117.032;2023-03-04T08:58:52;2;2;
60645;PMS5003;46462;32.608;-117.032;2023-03-04T09:01:23;4;3;
60645;PMS5003;46462;32.608;-117.032;2023-03-04T09:03:53;4;4;
60645;PMS5003;46462;32.608;-117.032;2023-03-04T09:06:23;1;0;
60645;PMS5003;46462;32.608;-117.032;2023-03-04T09:08:53;2;1;
60645;PMS5003;46462;32.608;-117.032;2023-03-04T09:11:23;4;4;
60645;PMS5003;46462;32.608;-117.032;2023-03-04T09:13:53;2;2;
60645;PMS5003;46462;32.608;-117.032;2023-03-04T09:16:23;4;4;
60645;PMS5003;46462;32.608;-117.032;2023-03-04T09:18:54;5;4;
60645;PMS5003;46462;32.608;-117.032;2023-03-04T09:21:25;2;2;
60645;PMS5003;46462;32.608;-117.032;2023-03-04T09:23:56;3;3;
60645;PMS5003;46462;32.608;-117.032;2023-03-04T09:26:28;4;3;
60645;PMS5003;46462;32.608;-117.032;2023-03-04T09:28:58;5;5;
60645;PMS5003;46462;32.608;-117.032;2023-03-04T09:31:28;2;1;
60645;PMS5003;46462;32.608;-117.032;2023-03-04T09:33:59;4;3;
60645;PMS5003;46462;32.608;-117.032;2023-03-04T09:36:29;2;2;
60645;PMS5003;46462;32.608;-117.032;2023-03-04T09:39:01;3;2;
60645;PMS5003;46462;32.608;-117.032;2023-03-04T09:41:33;3;3;
60645;PMS5003;46462;32.608;-117.032;2023-03-04T09:44:01;3;3;
60645;PMS5003;46462;32.608;-117.032;2023-03-04T09:46:32;3;3;
60645;PMS5003;46462;32.608;-117.032;2023-03-04T09:49:01;2;2;
60645;PMS5003;46462;32.608;-117.032;2023-03-04T09:51:38;3;3;
60645;PMS5003;46462;32.608;-117.032;2023-03-04T09:54:05;2;2;
60645;PMS5003;46462;32.608;-117.032;2023-03-04T09:56:33;4;4;
60645;PMS5003;46462;32.608;-117.032;2023-03-04T09:59:04;3;3;
60645;PMS5003;46462;32.608;-117.032;2023-03-04T10:01:33;3;3;
60645;PMS5003;46462;32.608;-117.032;2023-03-04T10:04:04;2;2;
60645;PMS5003;46462;32.608;-117.032;2023-03-04T10:06:32;3;2;
60645;PMS5003;46462;32.608;-117.032;2023-03-04T10:09:03;3;2;
60645;PMS5003;46462;32.608;-117.032;2023-03-04T10:11:33;3;2;
60645;PMS5003;46462;32.608;-117.032;2023-03-04T10:14:03;3;2;
60645;PMS5003;46462;32.608;-117.032;2023-03-04T10:16:33;3;3;
60645;PMS5003;46462;32.608;-117.032;2023-03-04T10:19:06;3;3;
60645;PMS5003;46462;32.608;-117.032;2023-03-04T10:21:33;2;1;
60645;PMS5003;46462;32.608;-117.032;2023-03-04T10:24:06;1;1;
60645;PMS5003;46462;32.608;-117.032;2023-03-04T10:26:32;2;2;
60645;PMS5003;46462;32.608;-117.032;2023-03-04T10:29:02;2;2;
60645;PMS5003;46462;32.608;-117.032;2023-03-04T10:31:33;3;2;
60645;PMS5003;46462;32.608;-117.032;2023-03-04T10:34:02;3;3;
60645;PMS5003;46462;32.608;-117.032;2023-03-04T10:36:35;2;2;
60645;PMS5003;46462;32.608;-117.032;2023-03-04T10:39:04;3;2;
60645;PMS5003;46462;32.608;-117.032;2023-03-04T10:41:32;3;3;
60645;PMS5003;46462;32.608;-117.032;2023-03-04T10:44:03;2;2;
60645;PMS5003;46462;32.608;-117.032;2023-03-04T10:46:36;1;1;
60645;PMS5003;46462;32.608;-117.032;2023-03-04T10:49:02;4;3;
60645;PMS5003;46462;32.608;-117.032;2023-03-04T10:51:38;3;3;
60645;PMS5003;46462;32.608;-117.032;2023-03-04T10:54:04;3;2;
60645;PMS5003;46462;32.608;-117.032;2023-03-04T10:56:34;3;3;
60645;PMS5003;46462;32.608;-117.032;2023-03-04T11:01:32;2;2;
60645;PMS5003;46462;32.608;-117.032;2023-03-04T11:04:08;4;3;
60645;PMS5003;46462;32.608;-117.032;2023-03-04T11:06:36;3;3;
60645;PMS5003;46462;32.608;-117.032;2023-03-04T11:09:02;2;2;
60645;PMS5003;46462;32.608;-117.032;2023-03-04T11:11:37;3;3;
60645;PMS5003;46462;32.608;-117.032;2023-03-04T11:14:07;6;5;
60645;PMS5003;46462;32.608;-117.032;2023-03-04T11:16:33;4;4;
60645;PMS5003;46462;32.608;-117.032;2023-03-04T11:19:03;2;2;
60645;PMS5003;46462;32.608;-117.032;2023-03-04T11:21:35;3;3;
60645;PMS5003;46462;32.608;-117.032;2023-03-04T11:24:04;4;3;
60645;PMS5003;46462;32.608;-117.032;2023-03-04T11:26:33;3;3;
60645;PMS5003;46462;32.608;-117.032;2023-03-04T11:29:04;4;3;
60645;PMS5003;46462;32.608;-117.032;2023-03-04T11:31:33;1;1;
60645;PMS5003;46462;32.608;-117.032;2023-03-04T11:34:03;3;2;
60645;PMS5003;46462;32.608;-117.032;2023-03-04T11:36:34;3;3;
60645;PMS5003;46462;32.608;-117.032;2023-03-04T11:39:03;4;3;
60645;PMS5003;46462;32.608;-117.032;2023-03-04T11:41:33;3;3;
60645;PMS5003;46462;32.608;-117.032;2023-03-04T11:44:04;3;3;
60645;PMS5003;46462;32.608;-117.032;2023-03-04T11:49:08;3;3;
60645;PMS5003;46462;32.608;-117.032;2023-03-04T11:51:35;3;3;
60645;PMS5003;46462;32.608;-117.032;2023-03-04T11:54:11;2;2;
60645;PMS5003;46462;32.608;-117.032;2023-03-04T11:56:34;3;3;
60645;PMS5003;46462;32.608;-117.032;2023-03-04T11:59:08;3;2;
60645;PMS5003;46462;32.608;-117.032;2023-03-04T12:01:36;2;2;
60645;PMS5003;46462;32.608;-117.032;2023-03-04T12:04:12;4;3;
60645;PMS5003;46462;32.608;-117.032;2023-03-04T12:06:36;3;3;
60645;PMS5003;46462;32.608;-117.032;2023-03-04T12:09:08;2;2;
60645;PMS5003;46462;32.608;-117.032;2023-03-04T12:11:37;3;3;
60645;PMS5003;46462;32.608;-117.032;2023-03-04T12:16:39;2;2;
60645;PMS5003;46462;32.608;-117.032;2023-03-04T12:19:09;3;3;
60645;PMS5003;46462;32.608;-117.032;2023-03-04T12:21:46;4;4;
60645;PMS5003;46462;32.608;-117.032;2023-03-04T12:26:36;2;2;
60645;PMS5003;46462;32.608;-117.032;2023-03-04T12:29:06;4;3;
60645;PMS5003;46462;32.608;-117.032;2023-03-04T12:31:36;4;4;
60645;PMS5003;46462;32.608;-117.032;2023-03-04T12:36:37;7;4;
60645;PMS5003;46462;32.608;-117.032;2023-03-04T12:39:13;4;4;
60645;PMS5003;46462;32.608;-117.032;2023-03-04T12:41:39;6;5;
60645;PMS5003;46462;32.608;-117.032;2023-03-04T12:44:08;3;3;
60645;PMS5003;46462;32.608;-117.032;2023-03-04T12:46:37;1;1;
60645;PMS5003;46462;32.608;-117.032;2023-03-04T12:49:12;5;5;
60645;PMS5003;46462;32.608;-117.032;2023-03-04T12:51:36;3;3;
60645;PMS5003;46462;32.608;-117.032;2023-03-04T12:54:10;4;3;
60645;PMS5003;46462;32.608;-117.032;2023-03-04T12:56:37;3;3;
60645;PMS5003;46462;32.608;-117.032;2023-03-04T12:59:05;5;5;
60645;PMS5003;46462;32.608;-117.032;2023-03-04T13:01:35;3;2;
60645;PMS5003;46462;32.608;-117.032;2023-03-04T13:04:07;3;3;
60645;PMS5003;46462;32.608;-117.032;2023-03-04T13:06:38;6;4;
60645;PMS5003;46462;32.608;-117.032;2023-03-04T13:09:07;5;3;
60645;PMS5003;46462;32.608;-117.032;2023-03-04T13:14:06;6;5;
60645;PMS5003;46462;32.608;-117.032;2023-03-04T13:16:36;4;4;
60645;PMS5003;46462;32.608;-117.032;2023-03-04T13:21:35;4;4;
60645;PMS5003;46462;32.608;-117.032;2023-03-04T13:26:35;5;4;
60645;PMS5003;46462;32.608;-117.032;2023-03-04T13:34:39;4;4;
60645;PMS5003;46462;32.608;-117.032;2023-03-04T13:46:39;4;4;
60645;PMS5003;46462;32.608;-117.032;2023-03-04T13:49:06;4;4;
60645;PMS5003;46462;32.608;-117.032;2023-03-04T13:51:36;6;6;
60645;PMS5003;46462;32.608;-117.032;2023-03-04T13:54:10;5;5;
60645;PMS5003;46462;32.608;-117.032;2023-03-04T13:56:36;5;4;
60645;PMS5003;46462;32.608;-117.032;2023-03-04T13:59:19;5;5;
60645;PMS5003;46462;32.608;-117.032;2023-03-04T14:01:49;4;4;
60645;PMS5003;46462;32.608;-117.032;2023-03-04T14:04:10;5;4;
60645;PMS5003;46462;32.608;-117.032;2023-03-04T14:06:40;5;4;
60645;PMS5003;46462;32.608;-117.032;2023-03-04T14:11:37;4;4;
60645;PMS5003;46462;32.608;-117.032;2023-03-04T14:14:07;4;4;
60645;PMS5003;46462;32.608;-117.032;2023-03-04T14:16:37;9;7;
60645;PMS5003;46462;32.608;-117.032;2023-03-04T14:19:11;4;4;
60645;PMS5003;46462;32.608;-117.032;2023-03-04T14:21:36;4;4;
60645;PMS5003;46462;32.608;-117.032;2023-03-04T14:24:09;5;5;
60645;PMS5003;46462;32.608;-117.032;2023-03-04T14:26:37;5;5;
60645;PMS5003;46462;32.608;-117.032;2023-03-04T14:31:37;5;5;
60645;PMS5003;46462;32.608;-117.032;2023-03-04T14:34:11;5;5;
60645;PMS5003;46462;32.608;-117.032;2023-03-04T14:36:37;5;5;
60645;PMS5003;46462;32.608;-117.032;2023-03-04T14:39:12;6;5;
60645;PMS5003;46462;32.608;-117.032;2023-03-04T14:41:38;7;5;
60645;PMS5003;46462;32.608;-117.032;2023-03-04T14:44:08;5;5;
60645;PMS5003;46462;32.608;-117.032;2023-03-04T14:46:39;5;5;
60645;PMS5003;46462;32.608;-117.032;2023-03-04T14:49:10;6;5;
60645;PMS5003;46462;32.608;-117.032;2023-03-04T14:51:40;4;4;
60645;PMS5003;46462;32.608;-117.032;2023-03-04T14:56:42;5;4;
60645;PMS5003;46462;32.608;-117.032;2023-03-04T14:59:10;7;7;
60645;PMS5003;46462;32.608;-117.032;2023-03-04T15:01:38;5;5;
60645;PMS5003;46462;32.608;-117.032;2023-03-04T15:04:08;6;5;
60645;PMS5003;46462;32.608;-117.032;2023-03-04T15:06:38;5;5;
60645;PMS5003;46462;32.608;-117.032;2023-03-04T15:11:44;10;9;
60645;PMS5003;46462;32.608;-117.032;2023-03-04T15:21:39;6;5;
60645;PMS5003;46462;32.608;-117.032;2023-03-04T15:24:09;6;6;
60645;PMS5003;46462;32.608;-117.032;2023-03-04T15:26:40;8;7;
60645;PMS5003;46462;32.608;-117.032;2023-03-04T15:29:11;7;7;
60645;PMS5003;46462;32.608;-117.032;2023-03-04T15:31:39;8;7;
60645;PMS5003;46462;32.608;-117.032;2023-03-04T15:34:11;8;8;
60645;PMS5003;46462;32.608;-117.032;2023-03-04T15:36:40;8;8;
60645;PMS5003;46462;32.608;-117.032;2023-03-04T15:39:10;9;9;
60645;PMS5003;46462;32.608;-117.032;2023-03-04T15:41:40;9;8;
60645;PMS5003;46462;32.608;-117.032;2023-03-04T15:44:12;5;5;
60645;PMS5003;46462;32.608;-117.032;2023-03-04T15:46:40;7;7;
60645;PMS5003;46462;32.608;-117.032;2023-03-04T15:49:10;8;8;
60645;PMS5003;46462;32.608;-117.032;2023-03-04T15:51:41;6;6;
60645;PMS5003;46462;32.608;-117.032;2023-03-04T15:54:11;6;6;
60645;PMS5003;46462;32.608;-117.032;2023-03-04T15:56:41;6;6;
60645;PMS5003;46462;32.608;-117.032;2023-03-04T15:59:12;8;7;
60645;PMS5003;46462;32.608;-117.032;2023-03-04T16:01:42;7;7;
60645;PMS5003;46462;32.608;-117.032;2023-03-04T16:04:12;7;7;
60645;PMS5003;46462;32.608;-117.032;2023-03-04T16:06:42;6;6;
60645;PMS5003;46462;32.608;-117.032;2023-03-04T16:09:12;10;9;
60645;PMS5003;46462;32.608;-117.032;2023-03-04T16:11:42;5;5;
60645;PMS5003;46462;32.608;-117.032;2023-03-04T16:14:12;8;6;
60645;PMS5003;46462;32.608;-117.032;2023-03-04T16:16:42;7;7;
60645;PMS5003;46462;32.608;-117.032;2023-03-04T16:19:12;7;7;
60645;PMS5003;46462;32.608;-117.032;2023-03-04T16:21:42;6;6;
60645;PMS5003;46462;32.608;-117.032;2023-03-04T16:24:14;7;7;
60645;PMS5003;46462;32.608;-117.032;2023-03-04T16:26:42;8;8;
60645;PMS5003;46462;32.608;-117.032;2023-03-04T16:29:12;6;6;
60645;PMS5003;46462;32.608;-117.032;2023-03-04T16:31:42;10;8;
60645;PMS5003;46462;32.608;-117.032;2023-03-04T16:34:12;7;7;
60645;PMS5003;46462;32.608;-117.032;2023-03-04T16:36:42;7;7;
60645;PMS5003;46462;32.608;-117.032;2023-03-04T16:39:14;5;5;
60645;PMS5003;46462;32.608;-117.032;2023-03-04T16:41:43;6;6;
60645;PMS5003;46462;32.608;-117.032;2023-03-04T16:44:13;7;7;
60645;PMS5003;46462;32.608;-117.032;2023-03-04T16:46:43;6;6;
60645;PMS5003;46462;32.608;-117.032;2023-03-04T16:49:13;5;5;
60645;PMS5003;46462;32.608;-117.032;2023-03-04T16:51:44;7;7;
60645;PMS5003;46462;32.608;-117.032;2023-03-04T16:54:14;8;7;
60645;PMS5003;46462;32.608;-117.032;2023-03-04T16:56:43;4;4;
60645;PMS5003;46462;32.608;-117.032;2023-03-04T16:59:13;7;6;
60645;PMS5003;46462;32.608;-117.032;2023-03-04T17:01:43;7;7;
60645;PMS5003;46462;32.608;-117.032;2023-03-04T17:04:13;5;5;
60645;PMS5003;46462;32.608;-117.032;2023-03-04T17:06:43;7;6;
60645;PMS5003;46462;32.608;-117.032;2023-03-04T17:09:14;7;7;
60645;PMS5003;46462;32.608;-117.032;2023-03-04T17:11:44;6;6;
60645;PMS5003;46462;32.608;-117.032;2023-03-04T17:14:14;7;6;